Time;durP1;ratioP1;P1;durP2;ratioP2;P2;SDS_P1;SDS_P2;PMS_P1;PMS_P2;Temp;Humidity;BMP_temperature;BMP_pressure;BME280_temperature;BME280_humidity;BME280_pressure;Samples;Min_cycle;Max_cycle;Signal;HPM_P1;HPM_P2
2022/12/04 00:02:00;;;;;;;72.60;18.37;;;;;;;-1.44;100.00;101552.19;6144935;28;20067;-70
2022/12/04 00:04:56;;;;;;;78.33;22.07;;;;;;;-1.44;100.00;101540.03;6145358;28;20416;-70
2022/12/04 00:07:51;;;;;;;74.73;18.43;;;;;;;-1.38;100.00;101538.97;6144856;28;20127;-71
2022/12/04 00:10:46;;;;;;;79.63;18.63;;;;;;;-1.39;100.00;101543.34;6145364;28;20036;-71
2022/12/04 00:13:42;;;;;;;87.03;20.77;;;;;;;-1.36;100.00;101550.19;6144259;28;20036;-70
2022/12/04 00:16:37;;;;;;;82.03;20.70;;;;;;;-1.38;100.00;101546.78;6145651;28;20439;-70
2022/12/04 00:19:33;;;;;;;64.07;18.17;;;;;;;-1.41;100.00;101537.31;6149177;28;20035;-70
2022/12/04 00:22:28;;;;;;;71.63;19.77;;;;;;;-1.33;100.00;101543.13;6148868;28;20731;-71
2022/12/04 00:25:23;;;;;;;78.70;17.90;;;;;;;-1.39;100.00;101534.69;6149641;28;20115;-71
2022/12/04 00:28:19;;;;;;;72.67;18.03;;;;;;;-1.37;100.00;101535.47;6149297;28;20078;-70
2022/12/04 00:31:16;;;;;;;75.77;18.57;;;;;;;-1.37;100.00;101545.88;6149301;28;20070;-71
2022/12/04 00:34:12;;;;;;;81.82;21.80;;;;;;;-1.42;100.00;101538.25;6148366;28;20032;-71
2022/12/04 00:37:07;;;;;;;80.37;22.37;;;;;;;-1.39;100.00;101542.50;6149374;28;20129;-70
2022/12/04 00:40:03;;;;;;;68.27;18.03;;;;;;;-1.39;100.00;101538.16;6148991;28;20081;-71
2022/12/04 00:42:58;;;;;;;91.78;22.58;;;;;;;-1.41;100.00;101539.94;6147992;28;20361;-71
2022/12/04 00:45:53;;;;;;;78.30;17.63;;;;;;;-1.52;100.00;101503.03;6149116;28;20039;-69
2022/12/04 00:48:49;;;;;;;79.50;18.77;;;;;;;-1.48;100.00;101528.03;6148724;28;20286;-71
2022/12/04 00:51:44;;;;;;;65.88;18.13;;;;;;;-1.55;100.00;101510.91;6148640;28;20024;-70
2022/12/04 00:54:40;;;;;;;82.23;20.67;;;;;;;-1.43;100.00;101533.94;6148230;28;20469;-71
2022/12/04 00:57:35;;;;;;;73.57;17.27;;;;;;;-1.49;100.00;101528.06;6148702;28;20039;-70
2022/12/04 01:00:30;;;;;;;82.60;20.13;;;;;;;-1.49;100.00;101522.88;6148594;28;20289;-70
2022/12/04 01:03:26;;;;;;;81.15;17.80;;;;;;;-1.39;100.00;101539.91;6147697;28;20040;-71
2022/12/04 01:06:25;;;;;;;81.33;17.43;;;;;;;-1.38;100.00;101542.44;6148209;28;20034;-71
2022/12/04 01:09:20;;;;;;;76.15;16.77;;;;;;;-1.44;100.00;101532.22;6148301;28;20081;-70
2022/12/04 01:12:16;;;;;;;76.50;18.00;;;;;;;-1.37;100.00;101543.28;6147890;28;20031;-70
2022/12/04 01:15:11;;;;;;;82.37;21.70;;;;;;;-1.39;100.00;101519.94;6148105;28;20431;-72
2022/12/04 01:18:07;;;;;;;61.63;14.90;;;;;;;-1.41;100.00;101532.13;6147930;28;20032;-71
2022/12/04 01:21:02;;;;;;;57.20;13.95;;;;;;;-1.34;100.00;101528.44;6148070;28;20036;-72
2022/12/04 01:23:58;;;;;;;84.47;23.77;;;;;;;-1.42;100.00;101514.84;6147122;28;20036;-70
2022/12/04 01:26:53;;;;;;;76.05;17.90;;;;;;;-1.45;100.00;101520.13;6148163;28;20274;-71
2022/12/04 01:29:49;;;;;;;95.50;24.10;;;;;;;-1.47;100.00;101521.91;6146715;28;20113;-71
2022/12/04 01:32:44;;;;;;;78.88;18.35;;;;;;;-1.45;100.00;101512.34;6147042;28;20092;-70
2022/12/04 01:35:39;;;;;;;72.67;18.73;;;;;;;-1.37;100.00;101518.13;6147988;28;20430;-71
2022/12/04 01:38:35;;;;;;;71.83;18.20;;;;;;;-1.34;100.00;101518.03;6147159;28;20392;-71
2022/12/04 01:41:31;;;;;;;60.47;17.00;;;;;;;-1.40;100.00;101507.81;6148101;28;20486;-70
2022/12/04 01:44:27;;;;;;;72.93;14.43;;;;;;;-1.37;100.00;101512.06;6146496;28;20032;-71
2022/12/04 01:47:22;;;;;;;77.15;19.27;;;;;;;-1.42;100.00;101512.25;6137095;28;20457;-71
2022/12/04 01:50:18;;;;;;;65.87;20.00;;;;;;;-1.42;100.00;101503.59;6148443;28;20040;-70
2022/12/04 01:53:13;;;;;;;62.87;14.80;;;;;;;-1.47;100.00;101482.09;6146414;28;20040;-70
2022/12/04 01:56:09;;;;;;;66.53;15.63;;;;;;;-1.37;100.00;101512.06;6147219;28;20070;-70
2022/12/04 01:59:06;;;;;;;60.70;16.33;;;;;;;-1.33;100.00;101509.31;6147486;28;20032;-70
2022/12/04 02:02:04;;;;;;;52.95;14.57;;;;;;;-1.36;100.00;101506.81;6146208;28;20032;-70
2022/12/04 02:05:01;;;;;;;60.63;18.17;;;;;;;-1.38;100.00;101507.75;6128618;28;20377;-71
2022/12/04 02:07:59;;;;;;;66.47;17.00;;;;;;;-1.34;100.00;101517.19;6146791;28;20027;-71
2022/12/04 02:11:09;;;;;;;75.53;17.52;;;;;;;-1.41;100.00;101494.84;6140534;28;20040;-72
2022/12/04 02:14:13;;;;;;;73.47;16.02;;;;;;;-1.31;100.00;101509.28;6123457;28;20040;-71
2022/12/04 02:17:36;;;;;;;71.40;17.00;;;;;;;-1.25;100.00;101514.28;6128118;28;20111;-71
2022/12/04 02:20:34;;;;;;;60.83;15.35;;;;;;;-1.36;100.00;101488.59;6146267;28;20537;-72
2022/12/04 02:24:01;;;;;;;67.05;16.05;;;;;;;-1.31;100.00;101488.47;6146305;28;20039;-71
2022/12/04 02:27:02;;;;;;;65.95;19.17;;;;;;;-1.31;100.00;101512.72;6146191;28;20032;-70
2022/12/04 02:30:03;;;;;;;73.25;20.27;;;;;;;-1.31;100.00;101491.91;6128620;28;20068;-70
2022/12/04 02:33:21;;;;;;;75.25;19.08;;;;;;;-1.30;100.00;101490.16;6145665;28;20431;-71
2022/12/04 02:36:19;;;;;;;71.45;21.08;;;;;;;-1.34;100.00;101480.75;6145579;28;20451;-70
2022/12/04 02:39:22;;;;;;;61.97;15.43;;;;;;;-1.32;100.00;101489.34;6127701;28;20077;-70
2022/12/04 02:42:35;;;;;;;81.20;22.80;;;;;;;-1.23;100.00;101491.66;6128097;28;20032;-71
2022/12/04 02:46:02;;;;;;;72.72;19.08;;;;;;;-1.20;100.00;101496.75;6128051;28;20059;-70
2022/12/04 02:49:00;;;;;;;82.43;20.10;;;;;;;-1.26;100.00;101494.34;6100183;28;20051;-71
2022/12/04 02:51:57;;;;;;;69.90;16.35;;;;;;;-1.33;100.00;101480.69;6127179;28;20538;-70
2022/12/04 02:54:56;;;;;;;75.90;19.67;;;;;;;-1.26;100.00;101495.22;6127890;28;20036;-72
2022/12/04 02:57:55;;;;;;;73.50;20.65;;;;;;;-1.30;100.00;101478.00;6127790;28;20043;-71
2022/12/04 03:00:52;;;;;;;67.05;17.58;;;;;;;-1.30;100.00;101483.19;6127735;28;20035;-73
2022/12/04 03:03:54;;;;;;;86.80;22.83;;;;;;;-1.28;100.00;101485.75;6126513;28;20040;-72
2022/12/04 03:06:59;;;;;;;80.20;25.02;;;;;;;-1.34;100.00;101479.03;6127478;28;20472;-71
2022/12/04 03:09:57;;;;;;;82.60;20.40;;;;;;;-1.32;100.00;101479.81;6122596;28;20028;-71
2022/12/04 03:12:57;;;;;;;81.50;23.45;;;;;;;-1.23;100.00;101489.91;6130119;28;20058;-70
2022/12/04 03:15:59;;;;;;;75.55;18.33;;;;;;;-1.18;100.00;101489.75;6127155;28;20032;-70
2022/12/04 03:19:17;;;;;;;64.15;18.02;;;;;;;-1.17;100.00;101480.19;6145644;28;20063;-70
2022/12/04 03:22:17;;;;;;;85.20;23.85;;;;;;;-1.24;100.00;101471.75;6144961;28;20480;-73
2022/12/04 03:25:13;;;;;;;78.57;22.20;;;;;;;-1.21;100.00;101472.50;6127285;28;20119;-70
2022/12/04 03:28:16;;;;;;;87.45;24.08;;;;;;;-1.18;100.00;101481.94;6145664;28;20031;-70
2022/12/04 03:31:13;;;;;;;82.90;23.85;;;;;;;-1.16;100.00;101482.72;6120215;28;20090;-71
2022/12/04 03:34:10;;;;;;;82.97;20.88;;;;;;;-1.22;100.00;101468.19;6144649;28;20511;-72
2022/12/04 03:37:18;;;;;;;67.00;19.67;;;;;;;-1.15;100.00;101481.84;6127225;28;20035;-72
2022/12/04 03:40:25;;;;;;;72.30;19.73;;;;;;;-1.10;100.00;101485.13;6145451;28;20040;-72
2022/12/04 03:43:28;;;;;;;83.70;21.48;;;;;;;-1.09;100.00;101475.56;6124074;28;20472;-71
2022/12/04 03:46:28;;;;;;;78.30;21.45;;;;;;;-1.14;100.00;101461.88;6127497;28;20042;-72
2022/12/04 03:49:36;;;;;;;69.50;22.40;;;;;;;-1.18;100.00;101447.25;6127662;28;20384;-70
2022/12/04 03:52:41;;;;;;;66.55;18.45;;;;;;;-1.08;100.00;101464.25;6136947;28;20055;-71
2022/12/04 03:55:46;;;;;;;85.95;25.65;;;;;;;-1.17;100.00;101461.97;6132494;28;20032;-69
2022/12/04 03:58:51;;;;;;;75.75;21.00;;;;;;;-1.18;100.00;101468.94;6149786;28;20047;-73
2022/12/04 04:01:48;;;;;;;78.35;19.83;;;;;;;-1.10;100.00;101481.66;6131592;28;20123;-71
2022/12/04 04:04:47;;;;;;;73.20;21.08;;;;;;;-1.16;100.00;101461.06;6131438;28;20534;-70
2022/12/04 04:07:52;;;;;;;67.97;18.08;;;;;;;-1.16;100.00;101463.66;6149654;28;20032;-72
2022/12/04 04:10:48;;;;;;;74.78;22.77;;;;;;;-1.11;100.00;101473.00;6131412;28;20218;-71
2022/12/04 04:26:58;;;;;;;63.35;18.10;;;;;;;-1.05;100.00;101466.72;6149890;28;20330;-72
2022/12/04 04:29:53;;;;;;;62.65;18.30;;;;;;;-0.99;100.00;101477.78;6131386;28;20036;-72
2022/12/04 04:32:58;;;;;;;93.43;23.37;;;;;;;-0.96;100.00;101461.22;6148778;28;20032;-70
2022/12/04 04:36:05;;;;;;;74.30;21.80;;;;;;;-0.97;100.00;101470.78;6130644;28;20028;-71
2022/12/04 04:39:18;;;;;;;53.67;15.98;;;;;;;-0.94;100.00;101459.41;6131294;28;20028;-71
2022/12/04 04:42:31;;;;;;;65.03;18.05;;;;;;;-1.00;100.00;101464.81;6130138;28;20499;-70
2022/12/04 04:45:43;;;;;;;74.57;22.23;;;;;;;-0.96;100.00;101471.63;6149135;28;20028;-72
2022/12/04 04:48:46;;;;;;;62.47;15.88;;;;;;;-0.90;100.00;101471.41;6130660;28;20043;-72
2022/12/04 04:51:42;;;;;;;73.07;22.75;;;;;;;-1.00;100.00;101450.06;6130643;28;20034;-71
2022/12/04 04:54:38;;;;;;;67.18;20.35;;;;;;;-0.95;100.00;101458.53;6130190;28;20068;-73
2022/12/04 04:57:35;;;;;;;77.03;22.33;;;;;;;-1.03;100.00;101439.75;6130613;28;20019;-72
2022/12/04 05:00:30;;;;;;;70.63;21.80;;;;;;;-0.98;100.00;101442.22;6148894;28;20032;-72
2022/12/04 05:03:27;;;;;;;76.63;21.43;;;;;;;-0.89;100.00;101462.69;6130090;28;20036;-72
2022/12/04 05:06:22;;;;;;;67.22;21.42;;;;;;;-0.98;100.00;101442.22;6148823;28;20484;-71
2022/12/04 05:09:17;;;;;;;73.70;22.80;;;;;;;-0.96;100.00;101450.81;6148544;28;20042;-72
2022/12/04 05:12:13;;;;;;;68.83;18.13;;;;;;;-0.95;100.00;101455.13;6147643;28;20026;-72
2022/12/04 05:15:08;;;;;;;66.63;19.90;;;;;;;-0.88;100.00;101461.78;6148149;28;20496;-73
2022/12/04 05:18:04;;;;;;;79.07;22.80;;;;;;;-0.92;100.00;101458.44;6148402;28;20035;-70
2022/12/04 05:21:05;;;;;;;73.93;23.25;;;;;;;-0.87;100.00;101472.13;6147700;28;20047;-71
2022/12/04 05:24:00;;;;;;;80.22;21.25;;;;;;;-0.86;100.00;101478.19;6147139;28;20063;-71
2022/12/04 05:26:56;;;;;;;68.97;20.95;;;;;;;-0.93;100.00;101466.31;6147938;28;20111;-72
2022/12/04 05:29:52;;;;;;;73.37;21.77;;;;;;;-0.85;100.00;101474.69;6148164;28;20503;-73
2022/12/04 05:32:48;;;;;;;60.65;19.38;;;;;;;-0.78;100.00;101486.56;6147442;28;20036;-72
2022/12/04 05:35:43;;;;;;;63.27;17.43;;;;;;;-0.82;100.00;101474.59;6147414;28;20456;-74
2022/12/04 05:38:38;;;;;;;56.07;17.30;;;;;;;-0.82;100.00;101478.03;6147253;28;20054;-71
2022/12/04 05:41:34;;;;;;;74.70;20.17;;;;;;;-0.91;100.00;101446.28;6147728;28;20039;-73
2022/12/04 05:44:29;;;;;;;51.43;18.67;;;;;;;-0.83;100.00;101462.47;6146989;28;20889;-74
2022/12/04 05:47:24;;;;;;;61.53;19.63;;;;;;;-0.83;100.00;101471.13;6147106;28;20035;-71
2022/12/04 05:50:20;;;;;;;66.30;19.10;;;;;;;-0.89;100.00;101460.06;6147191;28;20680;-70
2022/12/04 05:53:15;;;;;;;60.07;17.50;;;;;;;-0.85;100.00;101472.09;6147141;28;20024;-72
2022/12/04 05:56:10;;;;;;;80.70;21.70;;;;;;;-0.82;100.00;101474.59;6147248;28;20086;-71
2022/12/04 05:59:06;;;;;;;63.90;18.83;;;;;;;-0.90;100.00;101461.00;6145853;28;20096;-73
2022/12/04 06:02:01;;;;;;;62.73;19.37;;;;;;;-0.89;100.00;101450.53;6146198;28;20050;-73
2022/12/04 06:04:56;;;;;;;63.87;18.93;;;;;;;-0.82;100.00;101470.25;6147225;28;20115;-73
2022/12/04 06:07:51;;;;;;;76.40;21.37;;;;;;;-0.78;100.00;101477.00;6147192;28;20032;-71
2022/12/04 06:10:47;;;;;;;66.53;18.13;;;;;;;-0.80;100.00;101471.03;6146704;28;20048;-72
2022/12/04 06:13:43;;;;;;;64.07;20.47;;;;;;;-0.79;100.00;101474.47;6146199;28;20445;-72
2022/12/04 06:16:44;;;;;;;58.85;18.02;;;;;;;-0.76;100.00;101479.59;6146261;28;20054;-73
2022/12/04 06:19:39;;;;;;;61.53;19.27;;;;;;;-0.79;100.00;101464.06;6146532;28;20067;-71
2022/12/04 06:22:35;;;;;;;59.23;19.10;;;;;;;-0.77;100.00;101478.72;6145727;28;20115;-72
2022/12/04 06:25:30;;;;;;;65.47;17.92;;;;;;;-0.76;100.00;101483.00;6146403;28;20035;-71
2022/12/04 06:28:25;;;;;;;65.00;20.23;;;;;;;-0.76;100.00;101475.19;6146754;28;20044;-71
2022/12/04 06:31:21;;;;;;;66.72;20.13;;;;;;;-0.76;100.00;101477.81;6146747;28;20038;-70
2022/12/04 06:34:16;;;;;;;52.10;16.50;;;;;;;-0.79;100.00;101475.31;6145211;28;20132;-69
2022/12/04 06:37:12;;;;;;;73.28;21.00;;;;;;;-0.84;100.00;101474.63;6146557;28;20031;-70
2022/12/04 06:40:08;;;;;;;72.77;21.53;;;;;;;-0.77;100.00;101477.88;6146630;28;20035;-71
2022/12/04 06:43:04;;;;;;;63.42;19.67;;;;;;;-0.80;100.00;101477.97;6145507;28;20262;-72
2022/12/04 06:46:08;;;;;;;67.03;20.48;;;;;;;-0.92;100.00;101468.84;6146137;28;20082;-70
2022/12/04 06:49:03;;;;;;;66.53;18.92;;;;;;;-0.79;100.00;101484.91;6135749;28;20036;-71
2022/12/04 06:51:58;;;;;;;71.00;20.13;;;;;;;-0.76;100.00;101496.03;6145893;28;20393;-70
2022/12/04 06:54:54;;;;;;;59.27;17.77;;;;;;;-0.78;100.00;101490.03;6145728;28;20509;-71
2022/12/04 06:57:49;;;;;;;71.40;18.80;;;;;;;-0.82;100.00;101491.06;6145873;28;20633;-71
2022/12/04 07:00:44;;;;;;;62.30;18.87;;;;;;;-0.77;100.00;101491.75;6145974;28;20266;-71
2022/12/04 07:03:40;;;;;;;67.80;18.23;;;;;;;-0.99;100.00;101458.72;6145163;28;20036;-71
2022/12/04 07:06:36;;;;;;;73.25;21.13;;;;;;;-0.77;100.00;101499.56;6145830;28;20082;-72
2022/12/04 07:09:32;;;;;;;60.05;17.50;;;;;;;-0.87;100.00;101486.94;6143654;28;20036;-72
2022/12/04 07:12:27;;;;;;;58.07;18.97;;;;;;;-0.74;100.00;101493.38;6123318;28;20028;-73
2022/12/04 07:15:22;;;;;;;63.70;18.40;;;;;;;-0.77;100.00;101509.09;6145504;28;20071;-72
2022/12/04 07:18:18;;;;;;;59.23;17.20;;;;;;;-0.80;100.00;101496.19;6145242;28;20241;-70
2022/12/04 07:21:16;;;;;;;75.13;19.80;;;;;;;-0.82;100.00;101500.63;6145282;28;20035;-72
2022/12/04 07:24:14;;;;;;;68.30;19.70;;;;;;;-0.83;100.00;101499.75;6144999;28;20032;-71
2022/12/04 07:27:09;;;;;;;66.72;18.38;;;;;;;-0.86;100.00;101496.41;6147209;28;20047;-73
2022/12/04 07:30:05;;;;;;;61.27;20.33;;;;;;;-0.79;100.00;101505.72;6151054;28;20469;-71
2022/12/04 07:33:01;;;;;;;54.05;16.98;;;;;;;-0.94;100.00;101482.81;6149860;28;20115;-74
2022/12/04 07:35:57;;;;;;;80.67;20.80;;;;;;;-0.82;100.00;101500.63;6150559;28;20031;-69
2022/12/04 07:38:54;;;;;;;74.80;21.88;;;;;;;-0.81;100.00;101508.34;6150720;28;20415;-70
2022/12/04 07:41:49;;;;;;;63.33;19.50;;;;;;;-0.77;100.00;101511.72;6149739;28;20048;-70
2022/12/04 07:44:45;;;;;;;75.87;21.53;;;;;;;-0.86;100.00;101496.41;6150316;28;20089;-71
2022/12/04 07:47:40;;;;;;;70.65;20.98;;;;;;;-0.85;100.00;101496.38;6150341;28;20400;-73
2022/12/04 07:50:35;;;;;;;70.78;19.95;;;;;;;-0.85;100.00;101488.56;6150338;28;20032;-70
2022/12/04 07:53:32;;;;;;;74.67;20.77;;;;;;;-0.79;100.00;101487.50;6149407;28;20621;-72
2022/12/04 07:56:28;;;;;;;68.63;20.02;;;;;;;-0.77;100.00;101498.69;6149734;28;20465;-73
2022/12/04 07:59:23;;;;;;;61.57;17.97;;;;;;;-0.82;100.00;101485.00;6150438;28;20028;-70
2022/12/04 08:02:19;;;;;;;75.10;20.33;;;;;;;-0.75;100.00;101496.88;6149288;28;20758;-72
2022/12/04 08:05:15;;;;;;;75.05;25.00;;;;;;;-0.77;100.00;101496.09;6150460;28;20445;-71
2022/12/04 08:08:10;;;;;;;68.43;19.48;;;;;;;-0.73;100.00;101492.47;6149605;28;20027;-72
2022/12/04 08:11:11;;;;;;;86.17;23.57;;;;;;;-0.77;100.00;101489.13;6149927;28;20028;-71
2022/12/04 08:14:07;;;;;;;82.03;25.00;;;;;;;-0.77;100.00;101483.94;6149280;28;20024;-72
2022/12/04 08:17:03;;;;;;;79.93;20.60;;;;;;;-0.74;100.00;101503.78;6149134;28;20039;-72
2022/12/04 08:19:58;;;;;;;83.40;24.37;;;;;;;-0.71;100.00;101498.47;6149550;28;20044;-71
2022/12/04 08:22:53;;;;;;;64.13;21.53;;;;;;;-0.79;100.00;101482.28;6149089;28;20032;-71
2022/12/04 08:25:48;;;;;;;76.83;20.67;;;;;;;-0.81;100.00;101484.06;6149545;28;20044;-71
2022/12/04 08:28:44;;;;;;;68.47;19.83;;;;;;;-0.79;100.00;101484.91;6149621;28;20270;-71
2022/12/04 08:31:39;;;;;;;87.55;29.23;;;;;;;-0.71;100.00;101506.28;6149109;28;20028;-70
2022/12/04 08:34:35;;;;;;;84.17;23.30;;;;;;;-0.80;100.00;101488.38;6148862;28;20035;-70
2022/12/04 08:37:30;;;;;;;74.80;22.93;;;;;;;-0.75;100.00;101500.34;6148729;28;20128;-72
2022/12/04 08:40:26;;;;;;;81.90;25.37;;;;;;;-0.71;100.00;101508.91;6149295;28;20418;-72
2022/12/04 08:43:21;;;;;;;79.15;21.90;;;;;;;-0.79;100.00;101496.13;6148378;28;20305;-70
2022/12/04 08:46:17;;;;;;;66.40;20.45;;;;;;;-0.72;100.00;101497.63;6148804;28;20059;-73
2022/12/04 08:49:12;;;;;;;76.82;21.65;;;;;;;-0.76;100.00;101490.00;6147717;28;20058;-71
2022/12/04 08:52:08;;;;;;;73.57;21.83;;;;;;;-0.79;100.00;101505.72;6148315;28;20469;-72
2022/12/04 08:55:03;;;;;;;78.77;23.10;;;;;;;-0.70;100.00;101506.22;6149007;28;20044;-71
2022/12/04 08:57:58;;;;;;;71.80;19.75;;;;;;;-0.81;100.00;101484.94;6148623;28;20028;-72
2022/12/04 09:00:54;;;;;;;64.77;19.80;;;;;;;-0.81;100.00;101484.94;6148586;28;20036;-74
2022/12/04 09:03:49;;;;;;;79.57;23.00;;;;;;;-0.82;100.00;101490.22;6148297;28;20532;-70
2022/12/04 09:06:44;;;;;;;78.15;22.90;;;;;;;-0.68;100.00;101498.38;6148253;28;20282;-71
2022/12/04 09:09:40;;;;;;;66.43;22.07;;;;;;;-0.67;100.00;101506.13;6148560;28;20051;-73
2022/12/04 09:12:35;;;;;;;59.47;17.30;;;;;;;-0.81;100.00;101481.47;6147816;28;20028;-71
2022/12/04 09:15:31;;;;;;;71.57;25.53;;;;;;;-0.76;100.00;101508.22;6145833;28;20286;-72
2022/12/04 09:18:26;;;;;;;74.40;23.40;;;;;;;-0.74;100.00;101514.22;6146277;28;20035;-72
2022/12/04 09:21:23;;;;;;;82.53;21.77;;;;;;;-0.82;100.00;101485.84;6147265;28;20126;-70
2022/12/04 09:24:19;;;;;;;67.93;20.52;;;;;;;-0.71;100.00;101496.69;6146077;28;20035;-74
2022/12/04 09:27:15;;;;;;;75.97;23.13;;;;;;;-0.81;100.00;101492.75;6145758;28;20032;-73
2022/12/04 09:30:12;;;;;;;73.80;20.63;;;;;;;-0.72;100.00;101496.78;6148224;28;20839;-72
2022/12/04 09:33:07;;;;;;;78.70;22.67;;;;;;;-0.61;100.00;101505.03;6147322;28;20042;-72
2022/12/04 09:36:03;;;;;;;73.73;21.33;;;;;;;-0.77;100.00;101480.47;6147093;28;20028;-72
2022/12/04 09:38:58;;;;;;;79.65;21.52;;;;;;;-0.63;100.00;101501.66;6147824;28;20085;-74
2022/12/04 09:42:24;;;;;;;70.78;19.27;;;;;;;-0.59;100.00;101490.22;6147081;28;20139;-72
2022/12/04 09:45:21;;;;;;;79.13;20.38;;;;;;;-0.62;100.00;101500.72;6129165;28;20034;-72
2022/12/04 09:48:18;;;;;;;77.57;24.00;;;;;;;-0.62;100.00;101482.50;6129554;28;20380;-75
2022/12/04 09:51:17;;;;;;;75.40;22.65;;;;;;;-0.63;100.00;101491.25;6146543;28;20027;-75
2022/12/04 09:54:14;;;;;;;74.32;20.05;;;;;;;-0.49;100.00;101504.56;6128808;28;20039;-74
2022/12/04 09:57:14;;;;;;;77.55;22.60;;;;;;;-0.58;100.00;101497.13;6145417;28;20035;-74
2022/12/04 10:00:15;;;;;;;69.45;21.55;;;;;;;-0.60;100.00;101494.56;6145616;28;20032;-74
2022/12/04 10:03:19;;;;;;;81.82;22.30;;;;;;;-0.60;100.00;101496.34;6146114;28;20085;-73
2022/12/04 10:06:27;;;;;;;85.93;23.95;;;;;;;-0.60;100.00;101496.34;6146037;28;20052;-72
2022/12/04 10:09:28;;;;;;;68.88;20.20;;;;;;;-0.51;100.00;101495.97;6141668;28;20038;-73
2022/12/04 10:12:45;;;;;;;81.82;23.38;;;;;;;-0.54;100.00;101498.69;6126933;28;20028;-73
2022/12/04 10:16:15;;;;;;;82.22;23.58;;;;;;;-0.54;100.00;101500.47;6128319;28;20115;-73
2022/12/04 10:19:27;;;;;;;71.55;20.17;;;;;;;-0.54;100.00;101495.28;6131902;28;20127;-73
2022/12/04 10:22:29;;;;;;;80.00;20.58;;;;;;;-0.63;100.00;101481.69;6127723;28;20036;-74
2022/12/04 10:25:25;;;;;;;83.18;22.17;;;;;;;-0.63;100.00;101465.19;6128455;28;20040;-72
2022/12/04 10:28:33;;;;;;;77.32;22.95;;;;;;;-0.47;100.00;101491.50;6128120;28;20165;-72
2022/12/04 10:31:29;;;;;;;73.07;21.77;;;;;;;-0.47;100.00;101481.94;6128417;28;20035;-73
2022/12/04 10:34:27;;;;;;;72.50;18.52;;;;;;;-0.45;100.00;101490.56;6145046;28;20043;-74
2022/12/04 10:37:23;;;;;;;63.70;17.13;;;;;;;-0.44;100.00;101481.84;6145806;28;20039;-72
2022/12/04 10:40:22;;;;;;;71.07;21.65;;;;;;;-0.45;100.00;101480.13;6146161;28;20020;-73
2022/12/04 10:43:40;;;;;;;71.47;22.17;;;;;;;-0.58;100.00;101463.28;6127671;28;20073;-71
2022/12/04 10:46:35;;;;;;;96.25;26.30;;;;;;;-0.54;100.00;101474.44;6127265;28;20044;-74
2022/12/04 10:49:33;;;;;;;66.00;20.17;;;;;;;-0.59;100.00;101466.78;6145462;28;20059;-73
2022/12/04 10:52:29;;;;;;;73.18;21.63;;;;;;;-0.56;100.00;101471.88;6143993;28;20186;-71
2022/12/04 10:55:33;;;;;;;72.10;20.40;;;;;;;-0.48;100.00;101472.44;6145886;28;20028;-73
2022/12/04 10:58:29;;;;;;;83.85;26.15;;;;;;;-0.49;100.00;101465.50;6145350;28;20630;-74
2022/12/04 11:01:25;;;;;;;71.13;22.60;;;;;;;-0.41;100.00;101481.72;6145012;28;20051;-73
2022/12/04 11:04:25;;;;;;;72.82;21.05;;;;;;;-0.42;100.00;101468.75;6119859;28;20036;-74
2022/12/04 11:07:24;;;;;;;73.78;23.63;;;;;;;-0.51;100.00;101462.13;6121113;28;20549;-73
2022/12/04 11:10:30;;;;;;;91.70;26.80;;;;;;;-0.43;100.00;101467.88;6120941;28;20036;-73
2022/12/04 11:13:26;;;;;;;77.30;22.25;;;;;;;-0.44;100.00;101458.41;6126939;28;20032;-73
2022/12/04 11:16:49;;;;;;;69.07;20.20;;;;;;;-0.39;100.00;101448.66;6145398;28;20036;-73
2022/12/04 11:19:45;;;;;;;66.35;20.17;;;;;;;-0.48;100.00;101438.56;6130110;28;20098;-73
2022/12/04 11:22:57;;;;;;;68.00;18.90;;;;;;;-0.53;100.00;101421.41;6144391;28;20480;-74
2022/12/04 11:25:54;;;;;;;70.13;20.63;;;;;;;-0.40;100.00;101435.66;6127436;28;20039;-73
2022/12/04 11:28:52;;;;;;;66.32;18.55;;;;;;;-0.46;100.00;101431.53;6145007;28;20107;-74
2022/12/04 11:31:49;;;;;;;68.22;17.92;;;;;;;-0.42;100.00;101433.13;6126549;28;20036;-73
2022/12/04 11:34:45;;;;;;;68.85;18.90;;;;;;;-0.49;100.00;101410.81;6144629;28;20039;-75
2022/12/04 11:37:40;;;;;;;73.93;22.40;;;;;;;-0.45;100.00;101407.19;6126571;28;20039;-74
2022/12/04 11:40:36;;;;;;;76.07;19.73;;;;;;;-0.34;100.00;101419.81;6144624;28;20255;-74
2022/12/04 11:43:35;;;;;;;68.50;18.55;;;;;;;-0.31;100.00;101423.16;6144765;28;20129;-74
2022/12/04 11:46:32;;;;;;;66.03;20.15;;;;;;;-0.33;100.00;101417.16;6144499;28;20024;-74
2022/12/04 11:49:29;;;;;;;70.93;21.30;;;;;;;-0.24;100.00;101421.13;6143791;28;20020;-74
2022/12/04 11:53:09;;;;;;;70.65;19.75;;;;;;;-0.17;100.00;101433.03;6144334;28;20121;-73
2022/12/04 11:56:41;;;;;;;61.22;18.98;;;;;;;-0.20;100.00;101434.00;6080739;28;20051;-74
2022/12/04 11:59:59;;;;;;;66.20;20.85;;;;;;;-0.16;100.00;101435.56;6045516;28;20041;-74
2022/12/04 12:03:22;;;;;;;59.03;18.65;;;;;;;-0.20;100.00;101436.59;6122887;28;20035;-73
2022/12/04 12:06:29;;;;;;;60.67;20.27;;;;;;;-0.22;100.00;101422.75;6126432;28;20063;-74
2022/12/04 12:09:39;;;;;;;;;;;;;;;-0.16;100.00;101435.56;6144392;28;20154;-73
2022/12/04 12:12:53;;;;;;;67.80;20.17;;;;;;;-0.16;100.00;101434.72;6122685;28;19934;-73
2022/12/04 12:16:02;;;;;;;73.43;22.20;;;;;;;-0.27;100.00;101416.06;6148028;28;20036;-73
2022/12/04 12:18:57;;;;;;;73.82;19.77;;;;;;;-0.19;100.00;101430.47;6131373;28;20036;-73
2022/12/04 12:22:01;;;;;;;68.30;19.35;;;;;;;-0.20;100.00;101431.41;6148661;28;20031;-74
2022/12/04 12:25:17;;;;;;;69.03;22.73;;;;;;;-0.22;100.00;101427.97;6149362;28;20374;-74
2022/12/04 12:28:12;;;;;;;71.95;21.48;;;;;;;-0.16;100.00;101430.34;6148937;28;20476;-74
2022/12/04 12:31:34;;;;;;;67.43;19.67;;;;;;;-0.25;100.00;101406.44;6149147;28;20101;-74
2022/12/04 12:34:34;;;;;;;68.10;19.83;;;;;;;-0.25;100.00;101417.69;6105859;28;20044;-73
2022/12/04 12:37:39;;;;;;;88.70;22.17;;;;;;;-0.19;100.00;101420.03;6149145;28;20028;-74
2022/12/04 12:40:40;;;;;;;70.47;20.00;;;;;;;-0.22;100.00;101404.53;6130239;28;20035;-74
2022/12/04 12:43:39;;;;;;;78.72;19.88;;;;;;;-0.11;100.00;101417.97;6129517;28;20074;-74
2022/12/04 12:46:47;;;;;;;59.80;17.98;;;;;;;-0.23;100.00;101395.03;6129878;28;20035;-74
2022/12/04 12:49:48;;;;;;;80.68;23.08;;;;;;;-0.15;100.00;101410.34;6148362;28;20062;-73
2022/12/04 12:52:59;;;;;;;76.35;21.63;;;;;;;-0.19;100.00;101393.97;6147944;28;20032;-74
2022/12/04 12:55:57;;;;;;;69.00;20.95;;;;;;;-0.13;100.00;101388.53;6122197;28;20112;-73
2022/12/04 12:58:55;;;;;;;62.63;21.33;;;;;;;-0.15;100.00;101394.72;6130352;28;20369;-73
2022/12/04 13:01:54;;;;;;;75.88;22.13;;;;;;;-0.10;100.00;101393.63;6129380;28;20032;-73
2022/12/04 13:04:52;;;;;;;77.75;22.33;;;;;;;-0.06;100.00;101392.59;6129254;28;20544;-73
2022/12/04 13:07:56;;;;;;;76.05;21.67;;;;;;;-0.06;100.00;101387.41;6129960;28;20046;-74
2022/12/04 13:11:15;;;;;;;73.88;22.73;;;;;;;-0.08;100.00;101394.41;6148155;28;20442;-73
2022/12/04 13:14:12;;;;;;;65.25;20.45;;;;;;;-0.15;100.00;101379.94;6128680;28;20103;-74
2022/12/04 13:17:15;;;;;;;70.07;20.23;;;;;;;-0.19;100.00;101375.75;6129042;28;20036;-74
2022/12/04 13:20:17;;;;;;;68.32;20.75;;;;;;;-0.19;100.00;101367.94;6129705;28;20036;-74
2022/12/04 13:23:30;;;;;;;82.15;22.08;;;;;;;-0.15;100.00;101371.28;6128892;28;20081;-73
2022/12/04 13:26:31;;;;;;;73.57;22.42;;;;;;;-0.11;100.00;101381.50;6146686;28;20044;-74
2022/12/04 13:30:04;;;;;;;58.10;17.80;;;;;;;-0.19;100.00;101362.72;6147550;28;20055;-73
2022/12/04 13:33:28;;;;;;;67.25;22.90;;;;;;;-0.19;100.00;101369.72;6128689;28;20472;-74
2022/12/04 13:36:41;;;;;;;69.82;20.58;;;;;;;-0.11;100.00;101381.50;6144328;28;20040;-74
2022/12/04 13:40:09;;;;;;;77.68;20.88;;;;;;;-0.14;100.00;101368.63;6147068;28;20031;-74
2022/12/04 13:43:12;;;;;;;84.13;21.88;;;;;;;-0.05;100.00;101376.03;6146485;28;20052;-74